createdAt,value
2019-02-24T00:01:04.235Z,-0.08
2019-02-24T00:03:31.892Z,-0.01
2019-02-24T00:05:59.267Z,-0.13
2019-02-24T00:08:26.778Z,-0.13
2019-02-24T00:10:54.346Z,-0.04
2019-02-24T00:13:21.575Z,-0.13
2019-02-24T00:15:48.915Z,-0.10
2019-02-24T00:18:16.803Z,-0.11
2019-02-24T00:20:44.279Z,-0.23
2019-02-24T00:23:12.234Z,-0.29
2019-02-24T00:25:39.773Z,-0.23
2019-02-24T00:28:07.548Z,-0.31
2019-02-24T00:30:35.446Z,-0.32
2019-02-24T00:33:02.913Z,-0.28
2019-02-24T00:35:30.956Z,-0.34
2019-02-24T00:37:58.209Z,-0.30
2019-02-24T00:40:25.370Z,-0.35
2019-02-24T00:42:53.393Z,-0.41
2019-02-24T00:45:21.144Z,-0.40
2019-02-24T00:47:48.929Z,-0.45
2019-02-24T00:50:17.119Z,-0.45
2019-02-24T00:52:44.350Z,-0.49
2019-02-24T00:55:12.322Z,-0.58
2019-02-24T00:57:40.216Z,-0.53
2019-02-24T01:00:08.943Z,-0.62
2019-02-24T01:02:36.419Z,-0.62
2019-02-24T01:05:04.373Z,-0.65
2019-02-24T01:07:31.521Z,-0.70
2019-02-24T01:09:59.021Z,-0.74
2019-02-24T01:12:27.183Z,-0.77
2019-02-24T01:14:54.991Z,-0.80
2019-02-24T01:17:22.469Z,-0.82
2019-02-24T01:19:50.142Z,-0.83
2019-02-24T01:22:17.302Z,-0.85
2019-02-24T01:24:44.497Z,-0.84
2019-02-24T01:27:11.750Z,-0.93
2019-02-24T01:29:39.152Z,-0.86
2019-02-24T01:32:06.606Z,-0.78
2019-02-24T01:34:34.011Z,-0.78
2019-02-24T01:37:01.548Z,-0.87
2019-02-24T01:39:29.798Z,-0.86
2019-02-24T01:41:57.893Z,-0.89
2019-02-24T01:44:25.460Z,-1.03
2019-02-24T01:46:52.924Z,-0.91
2019-02-24T01:49:20.537Z,-0.98
2019-02-24T01:51:47.845Z,-0.96
2019-02-24T01:54:16.581Z,-1.09
2019-02-24T01:56:43.866Z,-1.13
2019-02-24T01:59:11.439Z,-1.12
2019-02-24T02:01:39.002Z,-1.12
2019-02-24T02:04:06.994Z,-1.28
2019-02-24T02:06:34.546Z,-1.28
2019-02-24T02:09:02.550Z,-1.28
2019-02-24T02:11:30.330Z,-1.23
2019-02-24T02:13:58.296Z,-1.24
2019-02-24T02:16:25.686Z,-1.27
2019-02-24T02:18:53.192Z,-1.28
2019-02-24T02:21:21.019Z,-1.32
2019-02-24T02:23:48.629Z,-1.34
2019-02-24T02:26:16.212Z,-1.31
2019-02-24T02:28:44.326Z,-1.37
2019-02-24T02:31:12.283Z,-1.36
2019-02-24T02:33:40.454Z,-1.46
2019-02-24T02:36:09.183Z,-1.45
2019-02-24T02:38:36.596Z,-1.43
2019-02-24T02:41:04.247Z,-1.50
2019-02-24T02:43:31.878Z,-1.50
2019-02-24T02:45:59.242Z,-1.55
2019-02-24T02:48:27.193Z,-1.59
2019-02-24T02:50:54.458Z,-1.60
2019-02-24T02:53:21.874Z,-1.68
2019-02-24T02:55:49.680Z,-1.63
2019-02-24T02:58:17.842Z,-1.72
2019-02-24T03:00:45.861Z,-1.71
2019-02-24T03:03:13.359Z,-1.71
2019-02-24T03:05:47.432Z,-1.68
2019-02-24T03:08:14.980Z,-1.67
2019-02-24T03:10:42.374Z,-1.72
2019-02-24T03:13:10.405Z,-1.74
2019-02-24T03:15:37.881Z,-1.71
2019-02-24T03:18:05.463Z,-1.67
2019-02-24T03:20:33.018Z,-1.72
2019-02-24T03:23:01.107Z,-1.80
2019-02-24T03:25:29.373Z,-1.83
2019-02-24T03:27:57.730Z,-1.77
2019-02-24T03:30:25.425Z,-1.66
2019-02-24T03:32:53.531Z,-1.63
2019-02-24T03:35:21.191Z,-1.60
2019-02-24T03:37:48.749Z,-1.75
2019-02-24T03:40:16.467Z,-1.66
2019-02-24T03:42:43.684Z,-1.69
2019-02-24T03:45:12.171Z,-1.79
2019-02-24T03:47:39.454Z,-1.69
2019-02-24T03:50:06.858Z,-1.86
2019-02-24T03:52:34.567Z,-1.86
2019-02-24T03:55:02.186Z,-1.89
2019-02-24T03:57:29.562Z,-1.96
2019-02-24T03:59:57.053Z,-2.00
2019-02-24T04:02:24.875Z,-2.06
2019-02-24T04:04:52.974Z,-2.15
2019-02-24T04:07:20.627Z,-2.16
2019-02-24T04:09:47.877Z,-2.01
2019-02-24T04:12:15.579Z,-2.07
2019-02-24T04:14:43.262Z,-2.16
2019-02-24T04:17:10.985Z,-2.25
2019-02-24T04:19:39.166Z,-2.25
2019-02-24T04:22:06.737Z,-2.22
2019-02-24T04:24:34.312Z,-2.18
2019-02-24T04:27:02.315Z,-2.20
2019-02-24T04:29:29.818Z,-2.25
2019-02-24T04:31:57.808Z,-2.16
2019-02-24T04:34:25.067Z,-2.22
2019-02-24T04:36:52.991Z,-2.20
2019-02-24T04:39:20.587Z,-2.12
2019-02-24T04:41:48.496Z,-2.15
2019-02-24T04:44:16.320Z,-2.10
2019-02-24T04:46:43.889Z,-2.11
2019-02-24T04:49:14.865Z,-2.23
2019-02-24T04:51:42.680Z,-2.18
2019-02-24T04:54:10.197Z,-2.27
2019-02-24T04:56:37.809Z,-2.15
2019-02-24T04:59:05.524Z,-2.14
2019-02-24T05:01:32.935Z,-2.13
2019-02-24T05:04:00.348Z,-2.19
2019-02-24T05:06:28.196Z,-2.26
2019-02-24T05:08:56.487Z,-2.31
2019-02-24T05:11:24.063Z,-2.32
2019-02-24T05:13:51.323Z,-2.28
2019-02-24T05:16:18.709Z,-2.37
2019-02-24T05:18:46.642Z,-2.39
2019-02-24T05:21:14.328Z,-2.43
2019-02-24T05:23:43.048Z,-2.42
2019-02-24T05:26:11.351Z,-2.49
2019-02-24T05:28:38.804Z,-2.52
2019-02-24T05:31:06.182Z,-2.51
2019-02-24T05:33:34.140Z,-2.39
2019-02-24T05:36:01.480Z,-2.33
2019-02-24T05:38:29.181Z,-2.42
2019-02-24T05:40:56.499Z,-2.49
2019-02-24T05:43:24.240Z,-2.45
2019-02-24T05:45:51.508Z,-2.50
2019-02-24T05:48:18.914Z,-2.54
2019-02-24T05:50:46.712Z,-2.49
2019-02-24T05:53:14.507Z,-2.52
2019-02-24T05:55:42.115Z,-2.51
2019-02-24T05:58:09.412Z,-2.55
2019-02-24T06:04:24.726Z,-2.54
2019-02-24T06:06:52.570Z,-2.40
2019-02-24T06:09:20.780Z,-2.48
2019-02-24T06:11:48.605Z,-2.38
2019-02-24T06:14:15.905Z,-2.50
2019-02-24T06:16:43.110Z,-2.44
2019-02-24T06:19:10.634Z,-2.40
2019-02-24T06:21:37.867Z,-2.50
2019-02-24T06:24:05.572Z,-2.54
2019-02-24T06:26:32.842Z,-2.57
2019-02-24T06:29:00.451Z,-2.44
2019-02-24T06:31:27.744Z,-2.45
2019-02-24T06:33:54.906Z,-2.56
2019-02-24T06:36:22.177Z,-2.48
2019-02-24T06:38:49.858Z,-2.48
2019-02-24T06:41:17.722Z,-2.46
2019-02-24T06:43:46.045Z,-2.38
2019-02-24T06:46:14.753Z,-2.35
2019-02-24T06:48:42.288Z,-2.26
2019-02-24T06:51:10.768Z,-2.02
2019-02-24T06:53:38.603Z,-1.92
2019-02-24T06:56:05.751Z,-2.00
2019-02-24T06:58:33.386Z,-1.99
2019-02-24T07:01:01.283Z,-1.96
2019-02-24T07:03:28.795Z,-1.96
2019-02-24T07:05:56.309Z,-1.81
2019-02-24T07:08:23.724Z,-1.80
2019-02-24T07:10:51.953Z,-1.83
2019-02-24T07:13:19.434Z,-1.72
2019-02-24T07:15:47.392Z,-1.61
2019-02-24T07:18:14.859Z,-1.60
2019-02-24T07:20:43.059Z,-1.56
2019-02-24T07:23:10.315Z,-1.56
2019-02-24T07:25:37.549Z,-1.43
2019-02-24T07:28:05.569Z,-1.39
2019-02-24T07:30:33.338Z,-1.24
2019-02-24T07:33:00.652Z,-1.07
2019-02-24T07:35:27.951Z,-0.81
2019-02-24T07:37:55.483Z,-0.39
2019-02-24T07:40:22.602Z,0.00
2019-02-24T07:42:49.984Z,0.21
2019-02-24T07:45:17.493Z,0.40
2019-02-24T07:47:44.771Z,0.58
2019-02-24T07:50:12.333Z,0.87
2019-02-24T07:52:39.910Z,1.17
2019-02-24T07:55:07.131Z,1.71
2019-02-24T07:57:34.870Z,2.09
2019-02-24T08:00:02.579Z,2.45
2019-02-24T08:02:29.973Z,2.77
2019-02-24T08:04:57.611Z,3.31
2019-02-24T08:07:24.894Z,3.69
2019-02-24T08:09:52.146Z,3.87
2019-02-24T08:12:19.997Z,4.32
2019-02-24T08:14:47.883Z,4.75
2019-02-24T08:17:15.735Z,4.84
2019-02-24T08:19:43.108Z,5.09
2019-02-24T08:22:10.627Z,5.28
2019-02-24T08:24:38.020Z,5.70
2019-02-24T08:27:05.903Z,6.01
2019-02-24T08:29:33.563Z,6.36
2019-02-24T08:32:01.244Z,6.61
2019-02-24T08:34:33.119Z,6.93
2019-02-24T08:37:01.140Z,7.22
2019-02-24T08:39:28.335Z,7.41
2019-02-24T08:41:55.431Z,7.63
2019-02-24T08:44:22.602Z,7.82
2019-02-24T08:46:50.193Z,8.03
2019-02-24T08:49:18.095Z,8.22
2019-02-24T08:51:46.209Z,8.54
2019-02-24T08:54:13.681Z,8.64
2019-02-24T08:56:41.285Z,8.91
2019-02-24T08:59:08.532Z,9.07
2019-02-24T09:01:36.346Z,9.27
2019-02-24T09:04:03.836Z,9.82
2019-02-24T09:06:31.327Z,9.89
2019-02-24T09:08:59.030Z,10.07
2019-02-24T09:11:26.556Z,10.24
2019-02-24T09:13:54.554Z,10.34
2019-02-24T09:16:22.078Z,10.52
2019-02-24T09:18:49.667Z,10.41
2019-02-24T09:21:16.917Z,10.27
2019-02-24T09:23:44.561Z,10.57
2019-02-24T09:26:11.961Z,10.71
2019-02-24T09:28:40.710Z,10.92
2019-02-24T09:31:08.703Z,11.01
2019-02-24T09:33:36.227Z,10.88
2019-02-24T09:36:04.080Z,10.87
2019-02-24T09:38:31.847Z,11.04
2019-02-24T09:41:01.254Z,11.09
2019-02-24T09:43:28.851Z,11.23
2019-02-24T09:45:56.146Z,11.33
2019-02-24T09:48:23.730Z,11.67
2019-02-24T09:50:51.288Z,11.94
2019-02-24T09:53:19.545Z,12.02
2019-02-24T09:55:47.645Z,12.16
2019-02-24T09:58:15.861Z,12.26
2019-02-24T10:00:44.038Z,12.39
2019-02-24T10:03:11.622Z,12.43
2019-02-24T10:05:39.545Z,12.18
2019-02-24T10:08:08.180Z,11.84
2019-02-24T10:10:36.116Z,11.74
2019-02-24T10:13:04.214Z,12.01
2019-02-24T10:15:31.863Z,11.90
2019-02-24T10:17:59.554Z,11.63
2019-02-24T10:20:27.216Z,11.81
2019-02-24T10:22:54.582Z,12.07
2019-02-24T10:25:21.988Z,12.38
2019-02-24T10:27:49.500Z,12.75
2019-02-24T10:30:17.182Z,12.80
2019-02-24T10:32:49.347Z,13.41
2019-02-24T10:35:16.986Z,13.60
2019-02-24T10:37:44.313Z,13.87
2019-02-24T10:40:13.307Z,13.85
2019-02-24T10:42:41.026Z,14.26
2019-02-24T10:45:10.472Z,14.44
2019-02-24T10:47:38.329Z,14.93
2019-02-24T10:50:08.577Z,14.96
2019-02-24T10:52:36.345Z,15.31
2019-02-24T10:55:04.488Z,15.40
2019-02-24T10:57:31.774Z,15.41
2019-02-24T10:59:59.892Z,15.59
2019-02-24T11:02:27.843Z,15.74
2019-02-24T11:04:55.296Z,15.84
2019-02-24T11:07:22.705Z,16.00
2019-02-24T11:09:50.368Z,16.07
2019-02-24T11:12:18.202Z,16.03
2019-02-24T11:14:45.503Z,16.09
2019-02-24T11:17:13.499Z,16.28
2019-02-24T11:19:41.327Z,16.18
2019-02-24T11:22:08.718Z,16.28
2019-02-24T11:24:36.363Z,16.22
2019-02-24T11:27:04.117Z,16.36
2019-02-24T11:29:32.328Z,16.25
2019-02-24T11:32:00.047Z,16.26
2019-02-24T11:34:27.646Z,16.47
2019-02-24T11:36:55.605Z,16.52
2019-02-24T11:39:22.740Z,16.36
2019-02-24T11:41:50.644Z,16.45
2019-02-24T11:44:18.661Z,16.54
2019-02-24T11:46:46.501Z,16.69
2019-02-24T11:49:14.030Z,16.36
2019-02-24T11:51:41.606Z,16.25
2019-02-24T11:54:09.246Z,16.34
2019-02-24T11:56:36.950Z,16.48
2019-02-24T11:59:04.102Z,16.38
2019-02-24T12:01:32.497Z,16.36
2019-02-24T12:04:00.171Z,16.42
2019-02-24T12:06:28.107Z,16.29
2019-02-24T12:08:55.321Z,16.42
2019-02-24T12:11:22.443Z,16.29
2019-02-24T12:13:49.756Z,16.17
2019-02-24T12:16:17.679Z,16.27
2019-02-24T12:18:45.333Z,15.61
2019-02-24T12:21:12.968Z,15.79
2019-02-24T12:23:40.064Z,15.58
2019-02-24T12:26:07.598Z,15.74
2019-02-24T12:28:35.014Z,15.46
2019-02-24T12:31:02.609Z,15.67
2019-02-24T12:33:30.618Z,15.40
2019-02-24T12:35:58.490Z,15.08
2019-02-24T12:38:25.767Z,15.11
2019-02-24T12:40:53.262Z,14.83
2019-02-24T12:43:20.844Z,14.75
2019-02-24T12:45:48.128Z,14.59
2019-02-24T12:48:15.810Z,14.37
2019-02-24T12:50:43.482Z,14.01
2019-02-24T12:53:13.989Z,13.97
2019-02-24T12:55:42.079Z,13.84
2019-02-24T12:58:09.995Z,13.66
2019-02-24T13:00:37.701Z,13.63
2019-02-24T13:03:05.582Z,13.49
2019-02-24T13:05:36.081Z,13.61
2019-02-24T13:08:08.804Z,13.37
2019-02-24T13:10:36.587Z,13.26
2019-02-24T13:13:04.248Z,13.15
2019-02-24T13:15:31.995Z,13.04
2019-02-24T13:17:59.783Z,12.97
2019-02-24T13:20:27.238Z,12.49
2019-02-24T13:22:54.486Z,12.83
2019-02-24T13:25:22.048Z,12.76
2019-02-24T13:27:50.077Z,12.97
2019-02-24T13:30:18.155Z,12.69
2019-02-24T13:32:45.821Z,12.87
2019-02-24T13:35:13.342Z,12.70
2019-02-24T13:37:41.300Z,12.53
2019-02-24T13:40:08.810Z,12.62
2019-02-24T13:42:36.075Z,12.40
2019-02-24T13:45:05.223Z,12.26
2019-02-24T13:47:32.511Z,12.29
2019-02-24T13:50:00.344Z,12.27
2019-02-24T13:52:28.340Z,12.18
2019-02-24T13:54:56.168Z,12.27
2019-02-24T13:57:23.786Z,12.07
2019-02-24T13:59:51.293Z,12.06
2019-02-24T14:02:24.148Z,12.05
2019-02-24T14:04:49.168Z,12.21
2019-02-24T14:07:16.839Z,12.16
2019-02-24T14:09:48.146Z,12.32
2019-02-24T14:12:16.274Z,12.37
2019-02-24T14:14:49.054Z,12.39
2019-02-24T14:17:13.742Z,12.43
2019-02-24T14:19:41.440Z,12.43
2019-02-24T14:22:09.786Z,12.40
2019-02-24T14:24:37.102Z,12.32
2019-02-24T14:27:04.414Z,12.21
2019-02-24T14:29:31.534Z,12.20
2019-02-24T14:31:59.401Z,12.06
2019-02-24T14:34:26.666Z,12.14
2019-02-24T14:36:53.952Z,12.15
2019-02-24T14:39:22.306Z,12.16
2019-02-24T14:41:50.184Z,12.19
2019-02-24T14:44:17.485Z,12.17
2019-02-24T14:46:44.916Z,12.15
2019-02-24T14:49:12.417Z,12.08
2019-02-24T14:51:40.346Z,12.13
2019-02-24T14:54:08.134Z,12.11
2019-02-24T14:56:35.529Z,12.11
2019-02-24T14:59:03.289Z,12.21
2019-02-24T15:01:31.392Z,12.21
2019-02-24T15:03:59.464Z,12.12
2019-02-24T15:06:27.136Z,12.17
2019-02-24T15:08:54.834Z,12.12
2019-02-24T15:11:22.431Z,12.04
2019-02-24T15:13:49.689Z,12.07
2019-02-24T15:16:17.187Z,11.98
2019-02-24T15:18:45.331Z,12.08
2019-02-24T15:21:13.075Z,12.05
2019-02-24T15:23:40.572Z,11.88
2019-02-24T15:26:08.344Z,12.02
2019-02-24T15:28:35.770Z,11.91
2019-02-24T15:31:03.263Z,11.94
2019-02-24T15:33:30.493Z,11.91
2019-02-24T15:35:57.809Z,11.84
2019-02-24T15:38:25.045Z,11.93
2019-02-24T15:40:52.617Z,11.86
2019-02-24T15:43:19.978Z,11.85
2019-02-24T15:45:47.319Z,11.78
2019-02-24T15:48:14.982Z,11.69
2019-02-24T15:50:42.386Z,11.64
2019-02-24T15:53:10.499Z,11.64
2019-02-24T15:55:37.753Z,11.61
2019-02-24T15:58:05.014Z,11.61
2019-02-24T16:00:32.371Z,11.64
2019-02-24T16:03:01.799Z,11.54
2019-02-24T16:05:29.044Z,11.45
2019-02-24T16:07:56.679Z,11.40
2019-02-24T16:10:24.170Z,11.44
2019-02-24T16:12:52.088Z,11.36
2019-02-24T16:15:19.445Z,11.31
2019-02-24T16:17:47.717Z,11.22
2019-02-24T16:20:18.740Z,11.12
2019-02-24T16:22:46.473Z,11.13
2019-02-24T16:25:14.575Z,10.95
2019-02-24T16:27:42.618Z,10.97
2019-02-24T16:30:11.268Z,10.95
2019-02-24T16:32:38.929Z,10.92
2019-02-24T16:35:08.444Z,10.86
2019-02-24T16:37:36.266Z,10.84
2019-02-24T16:40:05.893Z,10.67
2019-02-24T16:42:40.189Z,10.47
2019-02-24T16:45:09.319Z,10.47
2019-02-24T16:47:36.710Z,10.48
2019-02-24T16:50:05.339Z,10.40
2019-02-24T16:52:33.155Z,10.30
2019-02-24T16:55:02.479Z,10.11
2019-02-24T16:57:30.521Z,10.09
2019-02-24T16:59:58.001Z,9.97
2019-02-24T17:02:25.518Z,9.93
2019-02-24T17:04:53.240Z,9.79
2019-02-24T17:07:20.387Z,9.63
2019-02-24T17:09:47.665Z,9.64
2019-02-24T17:12:15.466Z,9.61
2019-02-24T17:14:43.102Z,9.60
2019-02-24T17:17:10.261Z,9.48
2019-02-24T17:19:37.540Z,9.33
2019-02-24T17:22:05.330Z,9.34
2019-02-24T17:24:32.776Z,9.20
2019-02-24T17:27:00.903Z,9.16
2019-02-24T17:29:28.043Z,8.96
2019-02-24T17:31:55.733Z,8.97
2019-02-24T17:34:23.495Z,8.86
2019-02-24T17:36:51.370Z,8.79
2019-02-24T17:39:19.048Z,8.78
2019-02-24T17:41:46.601Z,8.82
2019-02-24T17:44:13.922Z,8.75
2019-02-24T17:46:41.918Z,8.58
2019-02-24T17:49:09.680Z,8.57
2019-02-24T17:51:37.938Z,8.50
2019-02-24T17:54:05.199Z,8.35
2019-02-24T17:56:32.588Z,8.14
2019-02-24T17:59:00.113Z,8.15
2019-02-24T18:01:27.405Z,8.03
2019-02-24T18:03:55.529Z,8.21
2019-02-24T18:06:22.997Z,8.20
2019-02-24T18:08:54.323Z,8.03
2019-02-24T18:11:22.548Z,7.96
2019-02-24T18:13:50.441Z,7.75
2019-02-24T18:16:17.943Z,7.67
2019-02-24T18:18:45.635Z,7.59
2019-02-24T18:21:13.175Z,7.68
2019-02-24T18:23:41.515Z,7.56
2019-02-24T18:26:09.333Z,7.39
2019-02-24T18:28:37.481Z,7.42
2019-02-24T18:31:05.357Z,7.24
2019-02-24T18:33:33.024Z,7.30
2019-02-24T18:36:00.921Z,7.22
2019-02-24T18:38:28.441Z,7.20
2019-02-24T18:40:55.956Z,7.23
2019-02-24T18:43:23.135Z,7.00
2019-02-24T18:45:50.958Z,7.00
2019-02-24T18:48:18.576Z,7.05
2019-02-24T18:50:46.621Z,7.09
2019-02-24T18:53:13.849Z,7.08
2019-02-24T18:55:41.649Z,7.01
2019-02-24T18:58:09.704Z,6.82
2019-02-24T19:00:37.298Z,6.61
2019-02-24T19:03:04.985Z,6.74
2019-02-24T19:05:32.771Z,6.69
2019-02-24T19:08:00.038Z,6.60
2019-02-24T19:10:27.834Z,6.42
2019-02-24T19:12:54.990Z,6.31
2019-02-24T19:15:22.941Z,6.20
2019-02-24T19:17:50.606Z,6.17
2019-02-24T19:20:18.370Z,5.94
2019-02-24T19:22:45.954Z,5.97
2019-02-24T19:25:13.712Z,6.00
2019-02-24T19:27:41.157Z,5.90
2019-02-24T19:30:11.127Z,5.57
2019-02-24T19:32:38.974Z,5.74
2019-02-24T19:35:11.300Z,5.88
2019-02-24T19:37:39.733Z,5.75
2019-02-24T19:40:10.533Z,5.67
2019-02-24T19:42:38.038Z,5.60
2019-02-24T19:45:06.539Z,5.58
2019-02-24T19:47:33.753Z,5.53
2019-02-24T19:50:00.854Z,5.36
2019-02-24T19:52:30.273Z,5.36
2019-02-24T19:54:57.881Z,5.37
2019-02-24T19:57:25.249Z,5.39
2019-02-24T19:59:52.500Z,5.17
2019-02-24T20:02:20.096Z,5.27
2019-02-24T20:04:47.696Z,5.06
2019-02-24T20:07:15.292Z,5.13
2019-02-24T20:09:42.894Z,4.90
2019-02-24T20:12:13.085Z,4.87
2019-02-24T20:14:40.475Z,4.85
2019-02-24T20:17:11.465Z,4.59
2019-02-24T20:19:39.122Z,4.69
2019-02-24T20:22:06.697Z,4.55
2019-02-24T20:24:34.821Z,4.58
2019-02-24T20:27:02.361Z,4.64
2019-02-24T20:29:38.515Z,4.61
2019-02-24T20:32:06.426Z,4.54
2019-02-24T20:34:34.719Z,4.44
2019-02-24T20:37:02.195Z,4.33
2019-02-24T20:39:30.161Z,4.53
2019-02-24T20:41:57.893Z,4.46
2019-02-24T20:44:26.634Z,4.34
2019-02-24T20:46:54.550Z,4.11
2019-02-24T20:49:23.099Z,4.15
2019-02-24T20:51:50.931Z,4.05
2019-02-24T20:54:18.343Z,3.79
2019-02-24T20:56:45.844Z,3.60
2019-02-24T20:59:13.559Z,3.52
2019-02-24T21:01:40.702Z,3.61
2019-02-24T21:04:08.082Z,3.40
2019-02-24T21:06:36.148Z,3.63
2019-02-24T21:09:07.094Z,3.65
2019-02-24T21:11:34.741Z,3.56
2019-02-24T21:14:02.107Z,3.51
2019-02-24T21:16:29.508Z,3.29
2019-02-24T21:18:56.638Z,3.28
2019-02-24T21:21:23.925Z,3.47
2019-02-24T21:23:51.488Z,3.43
2019-02-24T21:26:18.953Z,3.27
2019-02-24T21:28:46.549Z,3.14
2019-02-24T21:31:14.902Z,3.02
2019-02-24T21:33:42.629Z,3.11
2019-02-24T21:36:10.595Z,3.04
2019-02-24T21:38:37.853Z,3.02
2019-02-24T21:41:05.574Z,3.16
2019-02-24T21:43:33.446Z,3.13
2019-02-24T21:46:01.189Z,3.04
2019-02-24T21:48:28.586Z,2.92
2019-02-24T21:50:56.169Z,3.01
2019-02-24T21:53:23.763Z,2.93
2019-02-24T21:55:51.022Z,2.78
2019-02-24T21:58:18.274Z,2.57
2019-02-24T22:00:45.746Z,2.63
2019-02-24T22:03:13.515Z,2.69
2019-02-24T22:05:41.248Z,2.65
2019-02-24T22:08:08.750Z,2.46
2019-02-24T22:10:40.193Z,2.52
2019-02-24T22:13:07.710Z,2.41
2019-02-24T22:15:35.683Z,2.28
2019-02-24T22:18:03.312Z,2.57
2019-02-24T22:20:31.122Z,2.54
2019-02-24T22:22:59.028Z,2.69
2019-02-24T22:25:26.279Z,2.73
2019-02-24T22:27:53.978Z,2.68
2019-02-24T22:30:22.047Z,2.33
2019-02-24T22:32:50.765Z,2.24
2019-02-24T22:35:18.267Z,2.06
2019-02-24T22:37:46.337Z,2.12
2019-02-24T22:40:14.914Z,1.86
2019-02-24T22:42:44.064Z,1.73
2019-02-24T22:45:13.738Z,1.84
2019-02-24T22:47:42.497Z,1.84
2019-02-24T22:50:10.354Z,1.90
2019-02-24T22:52:38.164Z,1.83
2019-02-24T22:55:06.145Z,1.80
2019-02-24T22:57:33.472Z,1.76
2019-02-24T23:00:01.245Z,1.66
2019-02-24T23:02:29.514Z,1.71
2019-02-24T23:04:57.797Z,1.78
2019-02-24T23:07:25.285Z,1.66
2019-02-24T23:09:52.628Z,1.69
2019-02-24T23:12:20.647Z,1.50
2019-02-24T23:14:51.674Z,1.32
2019-02-24T23:17:19.634Z,1.45
2019-02-24T23:19:47.411Z,1.37
2019-02-24T23:22:15.027Z,1.31
2019-02-24T23:24:42.565Z,1.30
2019-02-24T23:27:10.335Z,1.14
2019-02-24T23:29:37.715Z,1.32
2019-02-24T23:32:05.654Z,1.21
2019-02-24T23:34:33.129Z,0.93
2019-02-24T23:37:00.730Z,1.02
2019-02-24T23:39:28.092Z,0.99
2019-02-24T23:41:55.796Z,0.90
2019-02-24T23:44:23.544Z,0.92
2019-02-24T23:46:51.466Z,0.88
2019-02-24T23:49:19.098Z,0.80
2019-02-24T23:51:46.970Z,0.81
2019-02-24T23:54:14.530Z,0.82
2019-02-24T23:56:42.180Z,0.81
2019-02-24T23:59:09.771Z,0.70
